sensor_id;sensor_type;location;lat;lon;timestamp;P1;durP1;ratioP1;P2;durP2;ratioP2
22107;SDS011;11220;48.812;9.128;2023-02-13T00:00:48;0.30;;;0.30;;
22107;SDS011;11220;48.812;9.128;2023-02-13T00:03:13;0.28;;;0.22;;
22107;SDS011;11220;48.812;9.128;2023-02-13T00:05:39;0.30;;;0.30;;
22107;SDS011;11220;48.812;9.128;2023-02-13T00:08:05;0.20;;;0.20;;
22107;SDS011;11220;48.812;9.128;2023-02-13T00:10:30;0.40;;;0.30;;
22107;SDS011;11220;48.812;9.128;2023-02-13T00:12:56;0.30;;;0.30;;
22107;SDS011;11220;48.812;9.128;2023-02-13T00:15:21;0.20;;;0.20;;
22107;SDS011;11220;48.812;9.128;2023-02-13T00:17:47;0.30;;;0.28;;
22107;SDS011;11220;48.812;9.128;2023-02-13T00:20:12;0.20;;;0.20;;
22107;SDS011;11220;48.812;9.128;2023-02-13T00:22:38;0.47;;;0.30;;
22107;SDS011;11220;48.812;9.128;2023-02-13T00:25:04;0.30;;;0.30;;
22107;SDS011;11220;48.812;9.128;2023-02-13T00:27:30;0.28;;;0.28;;
22107;SDS011;11220;48.812;9.128;2023-02-13T00:29:56;0.38;;;0.30;;
22107;SDS011;11220;48.812;9.128;2023-02-13T00:32:22;0.20;;;0.20;;
22107;SDS011;11220;48.812;9.128;2023-02-13T00:34:47;0.30;;;0.20;;
22107;SDS011;11220;48.812;9.128;2023-02-13T00:37:13;0.40;;;0.40;;
22107;SDS011;11220;48.812;9.128;2023-02-13T00:39:38;0.30;;;0.20;;
22107;SDS011;11220;48.812;9.128;2023-02-13T00:42:04;0.40;;;0.40;;
22107;SDS011;11220;48.812;9.128;2023-02-13T00:44:30;0.30;;;0.30;;
22107;SDS011;11220;48.812;9.128;2023-02-13T00:46:55;0.40;;;0.40;;
22107;SDS011;11220;48.812;9.128;2023-02-13T00:49:21;0.30;;;0.30;;
22107;SDS011;11220;48.812;9.128;2023-02-13T00:51:46;0.40;;;0.28;;
22107;SDS011;11220;48.812;9.128;2023-02-13T00:54:12;0.60;;;0.30;;
22107;SDS011;11220;48.812;9.128;2023-02-13T00:56:37;0.30;;;0.30;;
22107;SDS011;11220;48.812;9.128;2023-02-13T00:59:03;0.60;;;0.40;;
22107;SDS011;11220;48.812;9.128;2023-02-13T01:01:28;0.50;;;0.40;;
22107;SDS011;11220;48.812;9.128;2023-02-13T01:03:54;1.08;;;0.38;;
22107;SDS011;11220;48.812;9.128;2023-02-13T01:06:20;0.30;;;0.30;;
22107;SDS011;11220;48.812;9.128;2023-02-13T01:08:45;0.30;;;0.20;;
22107;SDS011;11220;48.812;9.128;2023-02-13T01:11:11;0.50;;;0.30;;
22107;SDS011;11220;48.812;9.128;2023-02-13T01:13:36;0.35;;;0.30;;
22107;SDS011;11220;48.812;9.128;2023-02-13T01:16:02;0.55;;;0.30;;
22107;SDS011;11220;48.812;9.128;2023-02-13T01:18:28;0.20;;;0.20;;
22107;SDS011;11220;48.812;9.128;2023-02-13T01:20:58;0.80;;;0.30;;
22107;SDS011;11220;48.812;9.128;2023-02-13T01:23:25;0.40;;;0.22;;
22107;SDS011;11220;48.812;9.128;2023-02-13T01:25:53;0.60;;;0.30;;
22107;SDS011;11220;48.812;9.128;2023-02-13T01:28:19;0.40;;;0.40;;
22107;SDS011;11220;48.812;9.128;2023-02-13T01:30:44;0.40;;;0.40;;
22107;SDS011;11220;48.812;9.128;2023-02-13T01:33:10;0.35;;;0.20;;
22107;SDS011;11220;48.812;9.128;2023-02-13T01:35:39;0.30;;;0.30;;
22107;SDS011;11220;48.812;9.128;2023-02-13T01:38:04;0.40;;;0.40;;
22107;SDS011;11220;48.812;9.128;2023-02-13T01:40:30;0.28;;;0.20;;
22107;SDS011;11220;48.812;9.128;2023-02-13T01:42:56;0.30;;;0.30;;
22107;SDS011;11220;48.812;9.128;2023-02-13T01:45:26;0.20;;;0.20;;
22107;SDS011;11220;48.812;9.128;2023-02-13T01:47:55;0.40;;;0.30;;
22107;SDS011;11220;48.812;9.128;2023-02-13T01:50:31;0.30;;;0.30;;
22107;SDS011;11220;48.812;9.128;2023-02-13T01:53:12;0.40;;;0.30;;
22107;SDS011;11220;48.812;9.128;2023-02-13T01:55:54;0.38;;;0.38;;
22107;SDS011;11220;48.812;9.128;2023-02-13T01:58:24;0.30;;;0.30;;
22107;SDS011;11220;48.812;9.128;2023-02-13T02:00:53;0.30;;;0.30;;
22107;SDS011;11220;48.812;9.128;2023-02-13T02:06:00;0.55;;;0.40;;
22107;SDS011;11220;48.812;9.128;2023-02-13T02:08:27;0.25;;;0.25;;
22107;SDS011;11220;48.812;9.128;2023-02-13T02:10:55;0.47;;;0.40;;
22107;SDS011;11220;48.812;9.128;2023-02-13T02:13:26;0.40;;;0.40;;
22107;SDS011;11220;48.812;9.128;2023-02-13T02:15:51;0.30;;;0.30;;
22107;SDS011;11220;48.812;9.128;2023-02-13T02:18:18;0.40;;;0.40;;
22107;SDS011;11220;48.812;9.128;2023-02-13T02:20:52;0.28;;;0.25;;
22107;SDS011;11220;48.812;9.128;2023-02-13T02:35:09;0.40;;;0.40;;
22107;SDS011;11220;48.812;9.128;2023-02-13T02:37:57;0.77;;;0.45;;
22107;SDS011;11220;48.812;9.128;2023-02-13T02:47:08;0.95;;;0.32;;
22107;SDS011;11220;48.812;9.128;2023-02-13T02:50:02;0.40;;;0.40;;
22107;SDS011;11220;48.812;9.128;2023-02-13T02:55:46;0.52;;;0.30;;
22107;SDS011;11220;48.812;9.128;2023-02-13T02:58:18;0.43;;;0.40;;
22107;SDS011;11220;48.812;9.128;2023-02-13T03:01:23;0.47;;;0.40;;
22107;SDS011;11220;48.812;9.128;2023-02-13T03:04:13;0.65;;;0.43;;
22107;SDS011;11220;48.812;9.128;2023-02-13T03:07:19;0.35;;;0.35;;
22107;SDS011;11220;48.812;9.128;2023-02-13T03:09:46;0.38;;;0.38;;
22107;SDS011;11220;48.812;9.128;2023-02-13T03:12:40;0.50;;;0.40;;
22107;SDS011;11220;48.812;9.128;2023-02-13T03:15:30;0.43;;;0.43;;
22107;SDS011;11220;48.812;9.128;2023-02-13T03:17:56;0.85;;;0.50;;
22107;SDS011;11220;48.812;9.128;2023-02-13T03:20:49;1.02;;;0.60;;
22107;SDS011;11220;48.812;9.128;2023-02-13T03:29:00;0.63;;;0.30;;
22107;SDS011;11220;48.812;9.128;2023-02-13T03:31:53;0.65;;;0.30;;
22107;SDS011;11220;48.812;9.128;2023-02-13T03:34:25;0.77;;;0.50;;
22107;SDS011;11220;48.812;9.128;2023-02-13T03:37:16;0.30;;;0.30;;
22107;SDS011;11220;48.812;9.128;2023-02-13T03:40:14;0.32;;;0.30;;
22107;SDS011;11220;48.812;9.128;2023-02-13T03:43:38;0.40;;;0.30;;
22107;SDS011;11220;48.812;9.128;2023-02-13T03:46:11;0.60;;;0.40;;
22107;SDS011;11220;48.812;9.128;2023-02-13T03:48:38;0.40;;;0.40;;
22107;SDS011;11220;48.812;9.128;2023-02-13T03:51:29;0.45;;;0.40;;
22107;SDS011;11220;48.812;9.128;2023-02-13T03:54:15;0.60;;;0.50;;
22107;SDS011;11220;48.812;9.128;2023-02-13T03:56:41;0.40;;;0.40;;
22107;SDS011;11220;48.812;9.128;2023-02-13T03:59:28;0.30;;;0.30;;
22107;SDS011;11220;48.812;9.128;2023-02-13T04:02:02;0.30;;;0.30;;
22107;SDS011;11220;48.812;9.128;2023-02-13T04:04:48;0.50;;;0.40;;
22107;SDS011;11220;48.812;9.128;2023-02-13T04:07:23;0.55;;;0.45;;
22107;SDS011;11220;48.812;9.128;2023-02-13T04:10:00;0.52;;;0.50;;
22107;SDS011;11220;48.812;9.128;2023-02-13T04:16:26;0.65;;;0.50;;
22107;SDS011;11220;48.812;9.128;2023-02-13T04:18:21;0.43;;;0.40;;
22107;SDS011;11220;48.812;9.128;2023-02-13T04:20:49;0.40;;;0.40;;
22107;SDS011;11220;48.812;9.128;2023-02-13T04:23:15;0.35;;;0.35;;
22107;SDS011;11220;48.812;9.128;2023-02-13T04:25:42;0.43;;;0.40;;
22107;SDS011;11220;48.812;9.128;2023-02-13T04:28:10;0.50;;;0.50;;
22107;SDS011;11220;48.812;9.128;2023-02-13T04:30:35;0.52;;;0.45;;
22107;SDS011;11220;48.812;9.128;2023-02-13T04:33:01;0.90;;;0.47;;
22107;SDS011;11220;48.812;9.128;2023-02-13T04:35:26;0.57;;;0.40;;
22107;SDS011;11220;48.812;9.128;2023-02-13T04:37:52;0.85;;;0.50;;
22107;SDS011;11220;48.812;9.128;2023-02-13T04:40:17;0.60;;;0.40;;
22107;SDS011;11220;48.812;9.128;2023-02-13T04:42:43;0.60;;;0.45;;
22107;SDS011;11220;48.812;9.128;2023-02-13T04:45:11;0.63;;;0.43;;
22107;SDS011;11220;48.812;9.128;2023-02-13T04:47:37;0.70;;;0.50;;
22107;SDS011;11220;48.812;9.128;2023-02-13T04:50:02;0.30;;;0.30;;
22107;SDS011;11220;48.812;9.128;2023-02-13T04:52:28;0.60;;;0.50;;
22107;SDS011;11220;48.812;9.128;2023-02-13T04:54:53;0.38;;;0.35;;
22107;SDS011;11220;48.812;9.128;2023-02-13T04:57:19;1.13;;;0.32;;
22107;SDS011;11220;48.812;9.128;2023-02-13T04:59:44;0.30;;;0.22;;
22107;SDS011;11220;48.812;9.128;2023-02-13T05:02:10;0.32;;;0.32;;
22107;SDS011;11220;48.812;9.128;2023-02-13T05:04:35;0.70;;;0.40;;
22107;SDS011;11220;48.812;9.128;2023-02-13T05:07:01;0.55;;;0.43;;
22107;SDS011;11220;48.812;9.128;2023-02-13T05:09:26;0.95;;;0.40;;
22107;SDS011;11220;48.812;9.128;2023-02-13T05:11:52;0.60;;;0.50;;
22107;SDS011;11220;48.812;9.128;2023-02-13T05:14:18;0.73;;;0.60;;
22107;SDS011;11220;48.812;9.128;2023-02-13T05:16:44;0.80;;;0.60;;
22107;SDS011;11220;48.812;9.128;2023-02-13T05:19:10;0.77;;;0.57;;
22107;SDS011;11220;48.812;9.128;2023-02-13T05:21:36;0.77;;;0.55;;
22107;SDS011;11220;48.812;9.128;2023-02-13T05:24:20;0.63;;;0.50;;
22107;SDS011;11220;48.812;9.128;2023-02-13T05:26:45;0.45;;;0.45;;
22107;SDS011;11220;48.812;9.128;2023-02-13T05:29:11;0.70;;;0.40;;
22107;SDS011;11220;48.812;9.128;2023-02-13T05:31:42;0.43;;;0.43;;
22107;SDS011;11220;48.812;9.128;2023-02-13T05:34:12;0.50;;;0.30;;
22107;SDS011;11220;48.812;9.128;2023-02-13T05:36:37;0.47;;;0.40;;
22107;SDS011;11220;48.812;9.128;2023-02-13T05:39:03;0.55;;;0.52;;
22107;SDS011;11220;48.812;9.128;2023-02-13T05:41:29;0.40;;;0.30;;
22107;SDS011;11220;48.812;9.128;2023-02-13T05:43:55;0.50;;;0.30;;
22107;SDS011;11220;48.812;9.128;2023-02-13T05:46:20;0.75;;;0.60;;
22107;SDS011;11220;48.812;9.128;2023-02-13T05:48:46;0.40;;;0.40;;
22107;SDS011;11220;48.812;9.128;2023-02-13T05:51:11;0.75;;;0.70;;
22107;SDS011;11220;48.812;9.128;2023-02-13T05:53:37;0.85;;;0.50;;
22107;SDS011;11220;48.812;9.128;2023-02-13T05:56:03;0.40;;;0.40;;
22107;SDS011;11220;48.812;9.128;2023-02-13T05:58:29;0.50;;;0.40;;
22107;SDS011;11220;48.812;9.128;2023-02-13T06:00:56;0.70;;;0.50;;
22107;SDS011;11220;48.812;9.128;2023-02-13T06:03:23;0.50;;;0.50;;
22107;SDS011;11220;48.812;9.128;2023-02-13T06:05:49;0.70;;;0.50;;
22107;SDS011;11220;48.812;9.128;2023-02-13T06:08:14;0.90;;;0.60;;
22107;SDS011;11220;48.812;9.128;2023-02-13T06:10:40;0.50;;;0.43;;
22107;SDS011;11220;48.812;9.128;2023-02-13T06:13:05;0.82;;;0.60;;
22107;SDS011;11220;48.812;9.128;2023-02-13T06:15:31;0.47;;;0.43;;
22107;SDS011;11220;48.812;9.128;2023-02-13T06:17:56;0.40;;;0.40;;
22107;SDS011;11220;48.812;9.128;2023-02-13T06:20:22;0.45;;;0.40;;
22107;SDS011;11220;48.812;9.128;2023-02-13T06:22:48;0.63;;;0.40;;
22107;SDS011;11220;48.812;9.128;2023-02-13T06:25:15;0.30;;;0.30;;
22107;SDS011;11220;48.812;9.128;2023-02-13T06:27:40;0.40;;;0.35;;
22107;SDS011;11220;48.812;9.128;2023-02-13T06:30:06;0.63;;;0.43;;
22107;SDS011;11220;48.812;9.128;2023-02-13T06:32:32;0.52;;;0.32;;
22107;SDS011;11220;48.812;9.128;2023-02-13T06:34:57;0.60;;;0.50;;
22107;SDS011;11220;48.812;9.128;2023-02-13T06:37:23;0.68;;;0.50;;
22107;SDS011;11220;48.812;9.128;2023-02-13T06:39:48;0.90;;;0.40;;
22107;SDS011;11220;48.812;9.128;2023-02-13T06:42:14;0.30;;;0.30;;
22107;SDS011;11220;48.812;9.128;2023-02-13T06:44:39;0.40;;;0.35;;
22107;SDS011;11220;48.812;9.128;2023-02-13T06:47:05;0.40;;;0.40;;
22107;SDS011;11220;48.812;9.128;2023-02-13T06:49:30;0.38;;;0.38;;
22107;SDS011;11220;48.812;9.128;2023-02-13T06:51:56;0.32;;;0.30;;
22107;SDS011;11220;48.812;9.128;2023-02-13T06:54:21;0.30;;;0.30;;
22107;SDS011;11220;48.812;9.128;2023-02-13T06:56:47;0.60;;;0.50;;
22107;SDS011;11220;48.812;9.128;2023-02-13T06:59:12;0.43;;;0.35;;
22107;SDS011;11220;48.812;9.128;2023-02-13T07:01:38;0.40;;;0.40;;
22107;SDS011;11220;48.812;9.128;2023-02-13T07:04:03;0.57;;;0.38;;
22107;SDS011;11220;48.812;9.128;2023-02-13T07:06:29;0.65;;;0.40;;
22107;SDS011;11220;48.812;9.128;2023-02-13T07:08:54;0.40;;;0.30;;
22107;SDS011;11220;48.812;9.128;2023-02-13T07:11:20;0.88;;;0.40;;
22107;SDS011;11220;48.812;9.128;2023-02-13T07:13:48;0.45;;;0.40;;
22107;SDS011;11220;48.812;9.128;2023-02-13T07:16:13;0.45;;;0.32;;
22107;SDS011;11220;48.812;9.128;2023-02-13T07:18:39;0.35;;;0.30;;
22107;SDS011;11220;48.812;9.128;2023-02-13T07:21:05;0.52;;;0.38;;
22107;SDS011;11220;48.812;9.128;2023-02-13T07:23:31;0.45;;;0.45;;
22107;SDS011;11220;48.812;9.128;2023-02-13T07:26:00;0.45;;;0.32;;
22107;SDS011;11220;48.812;9.128;2023-02-13T07:28:26;0.60;;;0.40;;
22107;SDS011;11220;48.812;9.128;2023-02-13T07:30:53;0.40;;;0.40;;
22107;SDS011;11220;48.812;9.128;2023-02-13T07:33:18;0.60;;;0.32;;
22107;SDS011;11220;48.812;9.128;2023-02-13T07:35:47;0.50;;;0.45;;
22107;SDS011;11220;48.812;9.128;2023-02-13T07:38:14;0.30;;;0.30;;
22107;SDS011;11220;48.812;9.128;2023-02-13T07:40:41;0.52;;;0.30;;
22107;SDS011;11220;48.812;9.128;2023-02-13T07:43:06;0.55;;;0.40;;
22107;SDS011;11220;48.812;9.128;2023-02-13T07:45:32;0.47;;;0.40;;
22107;SDS011;11220;48.812;9.128;2023-02-13T07:47:57;0.43;;;0.43;;
22107;SDS011;11220;48.812;9.128;2023-02-13T07:50:24;0.40;;;0.40;;
22107;SDS011;11220;48.812;9.128;2023-02-13T07:52:59;0.57;;;0.40;;
22107;SDS011;11220;48.812;9.128;2023-02-13T07:55:26;0.55;;;0.40;;
22107;SDS011;11220;48.812;9.128;2023-02-13T07:57:52;0.45;;;0.45;;
22107;SDS011;11220;48.812;9.128;2023-02-13T08:00:18;0.50;;;0.40;;
22107;SDS011;11220;48.812;9.128;2023-02-13T08:02:45;0.52;;;0.40;;
22107;SDS011;11220;48.812;9.128;2023-02-13T08:05:11;0.30;;;0.30;;
22107;SDS011;11220;48.812;9.128;2023-02-13T08:07:37;0.30;;;0.30;;
22107;SDS011;11220;48.812;9.128;2023-02-13T08:10:03;0.50;;;0.40;;
22107;SDS011;11220;48.812;9.128;2023-02-13T08:12:50;0.30;;;0.28;;
22107;SDS011;11220;48.812;9.128;2023-02-13T08:15:16;0.38;;;0.38;;
22107;SDS011;11220;48.812;9.128;2023-02-13T08:17:42;0.30;;;0.28;;
22107;SDS011;11220;48.812;9.128;2023-02-13T08:20:08;0.50;;;0.40;;
22107;SDS011;11220;48.812;9.128;2023-02-13T08:22:37;0.45;;;0.45;;
22107;SDS011;11220;48.812;9.128;2023-02-13T08:25:04;0.70;;;0.50;;
22107;SDS011;11220;48.812;9.128;2023-02-13T08:27:30;0.68;;;0.50;;
22107;SDS011;11220;48.812;9.128;2023-02-13T08:29:56;0.40;;;0.40;;
22107;SDS011;11220;48.812;9.128;2023-02-13T08:32:22;0.60;;;0.40;;
22107;SDS011;11220;48.812;9.128;2023-02-13T08:34:48;0.38;;;0.38;;
22107;SDS011;11220;48.812;9.128;2023-02-13T08:37:14;0.47;;;0.40;;
22107;SDS011;11220;48.812;9.128;2023-02-13T08:39:40;0.40;;;0.38;;
22107;SDS011;11220;48.812;9.128;2023-02-13T08:42:05;0.45;;;0.40;;
22107;SDS011;11220;48.812;9.128;2023-02-13T08:44:31;0.60;;;0.40;;
22107;SDS011;11220;48.812;9.128;2023-02-13T08:46:57;0.40;;;0.35;;
22107;SDS011;11220;48.812;9.128;2023-02-13T08:49:22;0.30;;;0.30;;
22107;SDS011;11220;48.812;9.128;2023-02-13T08:51:48;0.60;;;0.50;;
22107;SDS011;11220;48.812;9.128;2023-02-13T08:54:14;0.70;;;0.40;;
22107;SDS011;11220;48.812;9.128;2023-02-13T08:56:41;0.55;;;0.32;;
22107;SDS011;11220;48.812;9.128;2023-02-13T08:59:07;0.57;;;0.40;;
22107;SDS011;11220;48.812;9.128;2023-02-13T09:01:32;0.70;;;0.40;;
22107;SDS011;11220;48.812;9.128;2023-02-13T09:03:58;0.45;;;0.35;;
22107;SDS011;11220;48.812;9.128;2023-02-13T09:06:24;0.40;;;0.40;;
22107;SDS011;11220;48.812;9.128;2023-02-13T09:08:52;0.50;;;0.30;;
22107;SDS011;11220;48.812;9.128;2023-02-13T09:11:18;0.50;;;0.30;;
22107;SDS011;11220;48.812;9.128;2023-02-13T09:13:46;0.38;;;0.32;;
22107;SDS011;11220;48.812;9.128;2023-02-13T09:16:12;0.40;;;0.30;;
22107;SDS011;11220;48.812;9.128;2023-02-13T09:18:38;0.30;;;0.30;;
22107;SDS011;11220;48.812;9.128;2023-02-13T09:21:05;0.50;;;0.35;;
22107;SDS011;11220;48.812;9.128;2023-02-13T09:23:35;0.50;;;0.38;;
22107;SDS011;11220;48.812;9.128;2023-02-13T09:26:04;0.20;;;0.20;;
22107;SDS011;11220;48.812;9.128;2023-02-13T09:28:32;0.20;;;0.20;;
22107;SDS011;11220;48.812;9.128;2023-02-13T09:30:59;0.30;;;0.20;;
22107;SDS011;11220;48.812;9.128;2023-02-13T09:33:29;0.30;;;0.30;;
22107;SDS011;11220;48.812;9.128;2023-02-13T09:35:55;0.47;;;0.30;;
22107;SDS011;11220;48.812;9.128;2023-02-13T09:38:20;0.20;;;0.20;;
22107;SDS011;11220;48.812;9.128;2023-02-13T09:40:50;0.35;;;0.30;;
22107;SDS011;11220;48.812;9.128;2023-02-13T09:46:01;0.30;;;0.30;;
22107;SDS011;11220;48.812;9.128;2023-02-13T09:48:38;0.32;;;0.30;;
22107;SDS011;11220;48.812;9.128;2023-02-13T09:51:06;0.20;;;0.20;;
22107;SDS011;11220;48.812;9.128;2023-02-13T09:53:38;0.22;;;0.20;;
22107;SDS011;11220;48.812;9.128;2023-02-13T10:01:25;0.20;;;0.20;;
22107;SDS011;11220;48.812;9.128;2023-02-13T10:06:54;0.28;;;0.20;;
22107;SDS011;11220;48.812;9.128;2023-02-13T10:12:55;0.13;;;0.13;;
22107;SDS011;11220;48.812;9.128;2023-02-13T10:15:34;0.20;;;0.10;;
22107;SDS011;11220;48.812;9.128;2023-02-13T10:18:23;0.10;;;0.10;;
22107;SDS011;11220;48.812;9.128;2023-02-13T10:20:56;0.20;;;0.20;;
22107;SDS011;11220;48.812;9.128;2023-02-13T10:23:39;0.10;;;0.10;;
22107;SDS011;11220;48.812;9.128;2023-02-13T10:28:47;0.20;;;0.20;;
22107;SDS011;11220;48.812;9.128;2023-02-13T10:31:45;0.13;;;0.13;;
22107;SDS011;11220;48.812;9.128;2023-02-13T10:34:14;0.10;;;0.10;;
22107;SDS011;11220;48.812;9.128;2023-02-13T10:36:42;0.22;;;0.20;;
22107;SDS011;11220;48.812;9.128;2023-02-13T10:39:28;0.22;;;0.22;;
22107;SDS011;11220;48.812;9.128;2023-02-13T10:50:25;0.10;;;0.10;;
22107;SDS011;11220;48.812;9.128;2023-02-13T10:53:04;0.30;;;0.30;;
22107;SDS011;11220;48.812;9.128;2023-02-13T10:58:18;0.10;;;0.10;;
22107;SDS011;11220;48.812;9.128;2023-02-13T11:03:23;0.15;;;0.15;;
22107;SDS011;11220;48.812;9.128;2023-02-13T11:05:51;0.10;;;0.10;;
22107;SDS011;11220;48.812;9.128;2023-02-13T11:10:55;0.20;;;0.20;;
22107;SDS011;11220;48.812;9.128;2023-02-13T11:13:22;0.17;;;0.10;;
22107;SDS011;11220;48.812;9.128;2023-02-13T11:15:56;0.20;;;0.20;;
22107;SDS011;11220;48.812;9.128;2023-02-13T11:18:22;0.10;;;0.10;;
22107;SDS011;11220;48.812;9.128;2023-02-13T11:20:57;0.20;;;0.10;;
22107;SDS011;11220;48.812;9.128;2023-02-13T11:25:55;0.13;;;0.10;;
22107;SDS011;11220;48.812;9.128;2023-02-13T11:28:22;0.10;;;0.10;;
22107;SDS011;11220;48.812;9.128;2023-02-13T11:30:48;0.20;;;0.20;;
22107;SDS011;11220;48.812;9.128;2023-02-13T11:35:42;0.10;;;0.10;;
22107;SDS011;11220;48.812;9.128;2023-02-13T11:40:37;0.20;;;0.10;;
22107;SDS011;11220;48.812;9.128;2023-02-13T11:43:06;0.10;;;0.10;;
22107;SDS011;11220;48.812;9.128;2023-02-13T11:45:32;0.30;;;0.20;;
22107;SDS011;11220;48.812;9.128;2023-02-13T11:47:58;0.22;;;0.10;;
22107;SDS011;11220;48.812;9.128;2023-02-13T11:50:25;0.22;;;0.10;;
22107;SDS011;11220;48.812;9.128;2023-02-13T11:52:57;0.20;;;0.20;;
22107;SDS011;11220;48.812;9.128;2023-02-13T11:55:34;0.10;;;0.10;;
22107;SDS011;11220;48.812;9.128;2023-02-13T12:00:36;0.10;;;0.10;;
22107;SDS011;11220;48.812;9.128;2023-02-13T12:03:27;0.10;;;0.10;;
22107;SDS011;11220;48.812;9.128;2023-02-13T12:08:23;0.10;;;0.10;;
22107;SDS011;11220;48.812;9.128;2023-02-13T12:10:49;0.25;;;0.20;;
22107;SDS011;11220;48.812;9.128;2023-02-13T12:13:32;0.20;;;0.20;;
22107;SDS011;11220;48.812;9.128;2023-02-13T12:16:02;0.20;;;0.20;;
22107;SDS011;11220;48.812;9.128;2023-02-13T12:18:36;0.20;;;0.20;;
22107;SDS011;11220;48.812;9.128;2023-02-13T12:21:10;0.20;;;0.20;;
22107;SDS011;11220;48.812;9.128;2023-02-13T12:24:07;0.50;;;0.20;;
22107;SDS011;11220;48.812;9.128;2023-02-13T12:26:47;0.15;;;0.15;;
22107;SDS011;11220;48.812;9.128;2023-02-13T12:29:31;0.20;;;0.20;;
22107;SDS011;11220;48.812;9.128;2023-02-13T12:32:32;0.20;;;0.20;;
22107;SDS011;11220;48.812;9.128;2023-02-13T12:37:38;0.20;;;0.20;;
22107;SDS011;11220;48.812;9.128;2023-02-13T13:00:34;0.22;;;0.20;;
22107;SDS011;11220;48.812;9.128;2023-02-13T13:03:30;0.15;;;0.10;;
22107;SDS011;11220;48.812;9.128;2023-02-13T13:06:09;0.30;;;0.30;;
22107;SDS011;11220;48.812;9.128;2023-02-13T13:09:01;0.80;;;0.40;;
22107;SDS011;11220;48.812;9.128;2023-02-13T13:11:44;0.40;;;0.30;;
22107;SDS011;11220;48.812;9.128;2023-02-13T13:17:05;0.60;;;0.50;;
22107;SDS011;11220;48.812;9.128;2023-02-13T13:19:54;0.20;;;0.20;;
22107;SDS011;11220;48.812;9.128;2023-02-13T13:22:41;1.05;;;0.50;;
22107;SDS011;11220;48.812;9.128;2023-02-13T13:25:20;0.50;;;0.30;;
22107;SDS011;11220;48.812;9.128;2023-02-13T13:28:21;0.68;;;0.45;;
22107;SDS011;11220;48.812;9.128;2023-02-13T13:30:49;0.57;;;0.50;;
22107;SDS011;11220;48.812;9.128;2023-02-13T13:33:20;0.57;;;0.43;;
22107;SDS011;11220;48.812;9.128;2023-02-13T13:38:31;0.40;;;0.40;;
22107;SDS011;11220;48.812;9.128;2023-02-13T13:41:14;0.77;;;0.40;;
22107;SDS011;11220;48.812;9.128;2023-02-13T13:44:00;0.55;;;0.47;;
22107;SDS011;11220;48.812;9.128;2023-02-13T13:46:36;0.60;;;0.50;;
22107;SDS011;11220;48.812;9.128;2023-02-13T13:49:26;0.32;;;0.30;;
22107;SDS011;11220;48.812;9.128;2023-02-13T13:52:07;0.50;;;0.43;;
22107;SDS011;11220;48.812;9.128;2023-02-13T13:54:47;0.50;;;0.50;;
22107;SDS011;11220;48.812;9.128;2023-02-13T13:57:16;0.43;;;0.30;;
22107;SDS011;11220;48.812;9.128;2023-02-13T14:04:59;0.80;;;0.40;;
22107;SDS011;11220;48.812;9.128;2023-02-13T14:07:38;0.60;;;0.40;;
22107;SDS011;11220;48.812;9.128;2023-02-13T14:10:07;0.63;;;0.40;;
22107;SDS011;11220;48.812;9.128;2023-02-13T14:18:24;0.30;;;0.30;;
22107;SDS011;11220;48.812;9.128;2023-02-13T14:20:51;0.30;;;0.30;;
22107;SDS011;11220;48.812;9.128;2023-02-13T14:28:36;0.30;;;0.30;;
22107;SDS011;11220;48.812;9.128;2023-02-13T14:31:05;0.20;;;0.20;;
22107;SDS011;11220;48.812;9.128;2023-02-13T14:33:39;0.30;;;0.30;;
22107;SDS011;11220;48.812;9.128;2023-02-13T14:36:14;0.22;;;0.22;;
22107;SDS011;11220;48.812;9.128;2023-02-13T14:38:53;0.30;;;0.30;;
22107;SDS011;11220;48.812;9.128;2023-02-13T14:41:40;0.20;;;0.20;;
22107;SDS011;11220;48.812;9.128;2023-02-13T14:50:14;0.20;;;0.20;;
22107;SDS011;11220;48.812;9.128;2023-02-13T14:52:44;0.10;;;0.10;;
22107;SDS011;11220;48.812;9.128;2023-02-13T14:55:32;0.10;;;0.10;;
22107;SDS011;11220;48.812;9.128;2023-02-13T15:00:42;0.10;;;0.10;;
22107;SDS011;11220;48.812;9.128;2023-02-13T15:05:59;0.10;;;0.10;;
22107;SDS011;11220;48.812;9.128;2023-02-13T15:08:30;0.03;;;0.03;;
22107;SDS011;11220;48.812;9.128;2023-02-13T15:11:00;0.20;;;0.10;;
22107;SDS011;11220;48.812;9.128;2023-02-13T15:13:33;0.00;;;0.00;;
22107;SDS011;11220;48.812;9.128;2023-02-13T15:16:05;0.20;;;0.20;;
22107;SDS011;11220;48.812;9.128;2023-02-13T15:23:51;0.38;;;0.20;;
22107;SDS011;11220;48.812;9.128;2023-02-13T15:26:22;0.10;;;0.10;;
22107;SDS011;11220;48.812;9.128;2023-02-13T15:28:59;0.20;;;0.13;;
22107;SDS011;11220;48.812;9.128;2023-02-13T15:31:29;0.10;;;0.10;;
22107;SDS011;11220;48.812;9.128;2023-02-13T15:33:58;0.13;;;0.10;;
22107;SDS011;11220;48.812;9.128;2023-02-13T15:36:25;0.20;;;0.20;;
22107;SDS011;11220;48.812;9.128;2023-02-13T15:38:58;0.10;;;0.10;;
22107;SDS011;11220;48.812;9.128;2023-02-13T15:41:28;0.20;;;0.20;;
22107;SDS011;11220;48.812;9.128;2023-02-13T15:44:12;0.20;;;0.20;;
22107;SDS011;11220;48.812;9.128;2023-02-13T15:46:51;0.10;;;0.10;;
22107;SDS011;11220;48.812;9.128;2023-02-13T15:49:19;0.15;;;0.10;;
22107;SDS011;11220;48.812;9.128;2023-02-13T15:51:47;0.32;;;0.30;;
22107;SDS011;11220;48.812;9.128;2023-02-13T15:54:21;0.30;;;0.20;;
22107;SDS011;11220;48.812;9.128;2023-02-13T15:56:49;0.20;;;0.20;;
22107;SDS011;11220;48.812;9.128;2023-02-13T15:59:17;0.20;;;0.17;;
22107;SDS011;11220;48.812;9.128;2023-02-13T16:01:43;0.20;;;0.20;;
22107;SDS011;11220;48.812;9.128;2023-02-13T16:04:11;0.25;;;0.13;;
22107;SDS011;11220;48.812;9.128;2023-02-13T16:06:39;0.10;;;0.10;;
22107;SDS011;11220;48.812;9.128;2023-02-13T16:09:16;0.10;;;0.10;;
22107;SDS011;11220;48.812;9.128;2023-02-13T16:12:18;0.30;;;0.30;;
22107;SDS011;11220;48.812;9.128;2023-02-13T16:17:36;0.40;;;0.20;;
22107;SDS011;11220;48.812;9.128;2023-02-13T16:20:07;0.30;;;0.20;;
22107;SDS011;11220;48.812;9.128;2023-02-13T16:22:51;0.30;;;0.28;;
22107;SDS011;11220;48.812;9.128;2023-02-13T16:28:17;0.30;;;0.30;;
22107;SDS011;11220;48.812;9.128;2023-02-13T16:31:20;0.20;;;0.20;;
22107;SDS011;11220;48.812;9.128;2023-02-13T16:33:46;0.20;;;0.20;;
22107;SDS011;11220;48.812;9.128;2023-02-13T16:38:43;0.17;;;0.10;;
22107;SDS011;11220;48.812;9.128;2023-02-13T16:43:50;0.20;;;0.20;;
22107;SDS011;11220;48.812;9.128;2023-02-13T16:49:12;0.17;;;0.15;;
22107;SDS011;11220;48.812;9.128;2023-02-13T16:51:44;0.32;;;0.20;;
22107;SDS011;11220;48.812;9.128;2023-02-13T16:56:43;0.20;;;0.10;;
22107;SDS011;11220;48.812;9.128;2023-02-13T17:04:34;0.13;;;0.13;;
22107;SDS011;11220;48.812;9.128;2023-02-13T17:07:03;0.20;;;0.20;;
22107;SDS011;11220;48.812;9.128;2023-02-13T17:09:29;0.20;;;0.10;;
22107;SDS011;11220;48.812;9.128;2023-02-13T17:11:55;0.10;;;0.10;;
22107;SDS011;11220;48.812;9.128;2023-02-13T17:14:20;0.10;;;0.10;;
22107;SDS011;11220;48.812;9.128;2023-02-13T17:16:46;0.03;;;0.03;;
22107;SDS011;11220;48.812;9.128;2023-02-13T17:19:12;0.10;;;0.10;;
22107;SDS011;11220;48.812;9.128;2023-02-13T17:21:38;0.10;;;0.10;;
22107;SDS011;11220;48.812;9.128;2023-02-13T17:24:04;0.00;;;0.00;;
22107;SDS011;11220;48.812;9.128;2023-02-13T17:26:31;0.10;;;0.10;;
22107;SDS011;11220;48.812;9.128;2023-02-13T17:28:56;0.15;;;0.10;;
22107;SDS011;11220;48.812;9.128;2023-02-13T17:31:22;0.08;;;0.08;;
22107;SDS011;11220;48.812;9.128;2023-02-13T17:33:47;0.03;;;0.03;;
22107;SDS011;11220;48.812;9.128;2023-02-13T17:36:13;0.00;;;0.00;;
22107;SDS011;11220;48.812;9.128;2023-02-13T17:38:39;0.00;;;0.00;;
22107;SDS011;11220;48.812;9.128;2023-02-13T17:41:05;0.10;;;0.10;;
22107;SDS011;11220;48.812;9.128;2023-02-13T17:43:39;0.20;;;0.15;;
22107;SDS011;11220;48.812;9.128;2023-02-13T17:46:04;0.20;;;0.10;;
22107;SDS011;11220;48.812;9.128;2023-02-13T17:48:31;0.10;;;0.03;;
22107;SDS011;11220;48.812;9.128;2023-02-13T17:50:57;0.10;;;0.10;;